EDFM Airport Information

Runway Information
Runway 09 Length 3497 ft width 82 ft Elevation 309 ft Threshold 19 ft Heading 93
Runway 27 Length 3497 ft Width 82 ft Elevation 306 ft Threshold 174 ft Heading 273
Runway 09L Length 2297 ft width 98 ft Elevation N/A Threshold 246 ft Heading 92
Runway 27R Length 2297 ft Width 98 ft Elevation ft Threshold 82 ft Heading 272
Airport Frequencies
Type APP Name COLEMAN AP Frequency 130.5 MHZ
Type ATIS Name ATIS Frequency 136.55 MHZ
Type CNTR Name LANGEN RAD Frequency 127.5 MHZ
Type INFO Name INFO Frequency 118.4 MHZ
Type TWR Name TWR Frequency 118.4 MHZ
Type TWR Name COLEMAN TW Frequency 122.1 MHZ
Airport Navaids
Type DME Name Mannheim Frequency 113550 KHZ
Airport Weather Information & NOTAM
ADDS - METARS form results

(0257 UTC 12 August 2022)
Data provider http://aviationweather.gov/metar/data/
 
Forecast for: EDFM (MANNHEIM , DE)
Text: TAF EDFM 111700Z 1118/1121 05006KT CAVOK
Forecast period: 1800 to 2100 UTC 11 August 2022
Forecast type: FROM: standard forecast or significant change
Winds: from the NE (50 degrees) at 7 MPH (6 knots; 3.1 m/s)
Visibility: 6 or more miles (10+ km)
Ceiling: unknown
Clouds: missing
Weather: NSW  (no significant weather)